Time;durP1;ratioP1;P1;durP2;ratioP2;P2;SDS_P1;SDS_P2;PMS_P1;PMS_P2;Temp;Humidity;BMP_temperature;BMP_pressure;BME280_temperature;BME280_humidity;BME280_pressure;Samples;Min_cycle;Max_cycle;Signal;HPM_P1;HPM_P2
2023/04/13 00:00:23;;;;;;;5.30;2.47;;;8.20;73.80;;;6.69;63.65;99112.97;10383109;27;97779;-90
2023/04/13 00:05:26;;;;;;;5.77;3.17;;;8.20;74.20;;;6.71;64.18;99111.78;10403230;28;96512;-89
2023/04/13 00:10:35;;;;;;;5.07;2.37;;;8.20;74.40;;;6.76;63.83;99110.47;10401172;27;96632;-89
2023/04/13 00:15:41;;;;;;;6.40;3.03;;;8.30;74.60;;;6.88;63.62;99109.13;10383737;28;97809;-90
2023/04/13 00:20:45;;;;;;;5.40;2.40;;;8.40;74.40;;;6.94;63.59;99106.59;10385069;27;96427;-87
2023/04/13 00:25:48;;;;;;;5.07;2.57;;;8.50;74.50;;;7.02;63.32;99113.69;10362101;28;97341;-87
2023/04/13 00:30:51;;;;;;;3.93;1.97;;;8.60;74.40;;;7.08;62.86;99104.25;10397742;28;96633;-87
2023/04/13 00:35:55;;;;;;;6.43;2.17;;;8.60;74.20;;;7.11;62.37;99096.81;10354526;27;96666;-89
2023/04/13 00:40:58;;;;;;;3.97;1.63;;;8.70;74.00;;;7.16;62.34;99097.09;10341223;28;96602;-88
2023/04/13 00:46:01;;;;;;;4.60;2.30;;;8.70;74.10;;;7.17;61.90;99096.09;10397682;28;97454;-88
2023/04/13 00:51:04;;;;;;;5.70;2.63;;;8.80;74.00;;;7.22;61.65;99098.25;10401080;27;96554;-89
2023/04/13 00:56:08;;;;;;;6.47;2.43;;;8.80;73.90;;;7.22;61.54;99093.78;10401977;28;96427;-88
2023/04/13 01:01:11;;;;;;;5.07;2.67;;;8.80;73.90;;;7.25;62.03;99101.34;10360765;27;98008;-88
2023/04/13 01:06:42;;;;;;;4.57;2.07;;;8.80;74.10;;;7.29;61.68;99101.00;10395364;27;98065;-88
2023/04/13 01:12:01;;;;;;;3.97;1.93;;;8.90;74.20;;;7.32;61.41;99103.31;10369834;28;96564;-87
2023/04/13 01:17:16;;;;;;;4.70;2.30;;;8.90;74.00;;;7.31;61.57;99091.06;10365253;27;98624;-88
2023/04/13 01:22:24;;;;;;;4.43;2.30;;;8.90;74.20;;;7.33;62.16;99078.53;10343080;28;96677;-88
2023/04/13 01:27:54;;;;;;;3.93;2.20;;;8.90;74.50;;;7.33;62.49;99082.00;10382775;27;98218;-89
2023/04/13 01:33:00;;;;;;;7.13;2.50;;;8.90;74.90;;;7.29;62.76;99090.44;10396958;27;96995;-89
2023/04/13 01:38:05;;;;;;;5.77;2.03;;;8.90;75.40;;;7.27;62.58;99090.63;10398380;27;97429;-89
2023/04/13 01:43:09;;;;;;;3.63;2.20;;;8.80;75.60;;;7.28;63.04;99091.44;10396039;28;96799;-89
2023/04/13 01:48:30;;;;;;;8.00;4.27;;;8.80;76.00;;;7.28;63.70;99091.44;10379608;28;96688;-88
2023/04/13 01:53:46;;;;;;;9.45;4.95;;;8.80;76.30;;;7.32;63.79;99092.75;10376444;27;97167;-89
2023/04/13 01:58:56;;;;;;;6.93;3.50;;;8.90;76.40;;;7.33;63.71;99095.22;10383606;28;97026;-88
2023/04/13 02:04:01;;;;;;;6.37;3.40;;;8.90;76.50;;;7.34;63.79;99091.56;10355865;28;96557;-89
2023/04/13 02:09:07;;;;;;;6.93;3.20;;;8.90;76.60;;;7.38;63.61;99092.06;10382297;28;96660;-89
2023/04/13 02:14:10;;;;;;;6.07;3.43;;;8.90;76.60;;;7.40;63.42;99092.69;10367604;28;96479;-89
2023/04/13 02:19:14;;;;;;;8.20;4.40;;;9.00;76.90;;;7.39;63.61;99091.88;10374119;28;97534;-89
2023/04/13 02:24:17;;;;;;;5.67;3.37;;;9.00;77.10;;;7.39;63.67;99094.50;10381606;28;96742;-89
2023/04/13 02:29:20;;;;;;;7.67;4.20;;;8.90;77.20;;;7.38;63.49;99087.59;10396386;28;96479;-89
2023/04/13 02:34:23;;;;;;;4.83;2.97;;;9.00;77.30;;;7.38;63.35;99090.22;10392290;28;97923;-89
2023/04/13 02:39:26;;;;;;;4.47;3.13;;;9.00;77.10;;;7.41;63.78;99094.34;10395922;27;96591;-89
2023/04/13 02:44:29;;;;;;;7.13;3.27;;;9.00;77.60;;;7.39;63.40;99093.69;10381550;28;96537;-90
2023/04/13 02:49:33;;;;;;;7.63;3.90;;;8.90;77.50;;;7.41;63.43;99099.63;10395939;28;98359;-89
2023/04/13 02:54:36;;;;;;;5.63;3.30;;;9.00;77.60;;;7.42;63.83;99093.34;10394662;28;96715;-89
2023/04/13 02:59:39;;;;;;;5.80;3.93;;;9.00;78.00;;;7.37;64.67;99100.97;10373196;28;96503;-89
2023/04/13 03:04:43;;;;;;;5.20;3.17;;;8.90;78.50;;;7.38;64.85;99094.69;10402685;28;96504;-88
2023/04/13 03:09:47;;;;;;;5.50;3.47;;;8.90;78.70;;;7.34;64.50;99096.84;10388603;28;96646;-87
2023/04/13 03:14:50;;;;;;;8.50;4.93;;;8.90;78.70;;;7.38;64.19;99098.16;10388072;28;96608;-87
2023/04/13 03:19:53;;;;;;;11.27;5.43;;;8.90;78.60;;;7.42;63.72;99093.34;10397204;28;97229;-88
2023/04/13 03:24:56;;;;;;;8.57;4.63;;;8.90;78.50;;;7.43;63.53;99082.56;10388173;28;96963;-88
2023/04/13 03:29:59;;;;;;;13.50;6.83;;;9.00;78.50;;;7.43;63.18;99085.22;10387094;28;96834;-88
2023/04/13 03:35:02;;;;;;;10.33;5.43;;;9.00;78.50;;;7.45;63.76;99085.06;10401117;28;97149;-87
2023/04/13 03:40:09;;;;;;;7.43;4.67;;;9.00;78.70;;;7.44;63.77;99078.97;10387990;28;96619;-88
2023/04/13 03:45:12;;;;;;;7.73;4.20;;;9.00;78.90;;;7.44;63.87;99075.50;10385778;28;96539;-87
2023/04/13 03:50:15;;;;;;;11.73;6.10;;;9.00;79.00;;;7.44;63.92;99088.72;10384626;28;96585;-86
2023/04/13 03:55:19;;;;;;;12.57;6.23;;;9.00;79.30;;;7.46;63.96;99084.06;10407054;28;96584;-87
2023/04/13 04:00:22;;;;;;;10.40;6.30;;;9.00;79.40;;;7.47;64.26;99091.00;10369440;27;96885;-90
2023/04/13 04:05:25;;;;;;;14.13;8.77;;;9.00;79.60;;;7.46;63.92;99089.34;10383456;28;99118;-89
2023/04/13 04:10:28;;;;;;;11.73;5.93;;;9.00;79.70;;;7.51;64.28;99093.13;10400376;28;96651;-90
2023/04/13 04:15:31;;;;;;;12.70;7.10;;;9.00;79.80;;;7.55;63.83;99090.09;10383696;27;98504;-84
2023/04/13 04:20:34;;;;;;;26.03;11.83;;;9.10;79.60;;;7.60;63.70;99093.06;10404706;27;96634;-84
2023/04/13 04:25:38;;;;;;;36.50;16.43;;;9.10;79.50;;;7.62;63.59;99094.53;10400957;28;96594;-84
2023/04/13 04:30:44;;;;;;;25.60;11.73;;;9.10;79.50;;;7.66;63.36;99090.53;10397612;27;96487;-84
2023/04/13 04:35:51;;;;;;;20.47;10.30;;;9.20;79.50;;;7.69;63.23;99098.13;10388827;28;97297;-84
2023/04/13 04:40:56;;;;;;;20.10;10.20;;;9.30;79.30;;;7.78;62.78;99096.22;10378561;28;96870;-84
2023/04/13 04:46:01;;;;;;;12.13;7.27;;;9.30;79.10;;;7.86;62.27;99096.19;10368289;28;96687;-85
2023/04/13 04:51:07;;;;;;;15.90;7.87;;;9.40;78.90;;;7.92;61.86;99097.31;10399250;28;98359;-84
2023/04/13 04:56:10;;;;;;;14.00;7.53;;;9.50;78.80;;;8.00;61.89;99089.28;10398507;28;97351;-84
2023/04/13 05:01:13;;;;;;;10.93;5.53;;;9.50;78.70;;;8.07;60.70;99087.56;10412825;28;98279;-84
2023/04/13 05:06:16;;;;;;;14.87;6.10;;;9.60;78.20;;;8.21;60.44;99081.47;10363613;28;96763;-84
2023/04/13 05:11:20;;;;;;;15.80;8.33;;;9.70;78.00;;;8.40;60.35;99092.59;10393264;28;98556;-83
2023/04/13 05:16:23;;;;;;;17.60;8.87;;;9.90;77.90;;;8.56;60.47;99092.41;10410232;28;98198;-83
2023/04/13 05:21:28;;;;;;;25.80;12.67;;;10.00;78.00;;;8.78;60.83;99085.41;10393784;28;97387;-83
2023/04/13 05:26:33;;;;;;;15.43;7.27;;;10.20;78.10;;;9.00;59.43;99088.97;10393803;27;97293;-84
2023/04/13 05:31:36;;;;;;;11.90;7.13;;;10.30;77.50;;;9.24;57.30;99088.63;10412156;28;97287;-83
2023/04/13 05:36:40;;;;;;;19.63;10.03;;;10.60;76.60;;;9.48;56.16;99082.19;10402026;27;97853;-85
2023/04/13 05:41:43;;;;;;;12.23;6.77;;;10.80;75.80;;;9.82;55.26;99088.63;10378324;28;97238;-84
2023/04/13 05:46:49;;;;;;;12.03;5.77;;;11.10;75.20;;;10.04;53.10;99081.47;10378483;28;97484;-84
2023/04/13 05:51:53;;;;;;;9.93;5.53;;;11.30;74.00;;;10.20;50.99;99086.50;10395676;27;97427;-83
2023/04/13 05:56:56;;;;;;;10.90;4.93;;;11.50;72.60;;;10.23;48.17;99085.28;10407521;27;96544;-84
2023/04/13 06:02:01;;;;;;;11.67;5.10;;;11.60;70.70;;;10.30;49.32;99086.19;10381429;28;98274;-84
2023/04/13 06:07:05;;;;;;;11.37;4.63;;;11.70;70.20;;;10.41;48.68;99089.13;10384094;28;96614;-84
2023/04/13 06:12:08;;;;;;;5.93;3.53;;;11.80;69.40;;;10.52;47.97;99090.44;10410818;28;97754;-84
2023/04/13 06:17:12;;;;;;;9.10;4.80;;;11.90;68.40;;;10.56;46.64;99088.22;10370303;28;96436;-84
2023/04/13 06:22:15;;;;;;;11.60;5.53;;;12.00;67.20;;;10.69;46.77;99085.66;10396124;28;96581;-85
2023/04/13 06:27:18;;;;;;;8.10;4.37;;;12.10;67.10;;;10.66;45.80;99086.03;10382565;28;96598;-85
2023/04/13 06:32:21;;;;;;;47.10;29.47;;;12.20;66.00;;;10.76;46.54;99085.69;10391798;27;99177;-86
2023/04/13 06:37:24;;;;;;;27.67;12.37;;;12.20;65.80;;;10.81;46.52;99094.72;10380649;27;97115;-85
2023/04/13 06:42:27;;;;;;;16.20;7.20;;;12.20;65.70;;;10.92;46.47;99096.81;10396328;27;97057;-85
2023/04/13 06:47:31;;;;;;;16.97;7.93;;;12.30;65.70;;;11.06;46.99;99088.91;10407794;27;97791;-84
2023/04/13 06:52:35;;;;;;;18.90;8.20;;;12.40;65.50;;;11.23;46.88;99099.00;10405276;28;98348;-85
2023/04/13 06:57:38;;;;;;;24.90;10.40;;;12.60;65.70;;;11.45;45.50;99099.66;10391298;27;96793;-83
2023/04/13 07:02:42;;;;;;;19.43;8.70;;;12.80;64.90;;;11.78;45.92;99090.94;10391591;27;98733;-85
2023/04/13 07:07:45;;;;;;;17.80;6.73;;;13.10;64.90;;;11.94;45.14;99105.75;10384855;28;96700;-85
2023/04/13 07:12:48;;;;;;;15.37;7.33;;;13.30;64.00;;;12.17;44.88;99100.00;10417587;27;97303;-87
2023/04/13 07:17:52;;;;;;;30.23;10.73;;;13.50;63.90;;;12.28;44.04;99112.72;10400988;28;96557;-89
2023/04/13 07:22:55;;;;;;;14.43;6.83;;;13.60;63.40;;;12.28;44.74;99107.41;10389796;28;98969;-85
2023/04/13 07:27:58;;;;;;;14.77;8.23;;;13.70;63.20;;;12.31;44.41;99109.66;10394520;28;96479;-85
2023/04/13 07:33:01;;;;;;;25.03;11.00;;;13.70;62.90;;;12.37;44.64;99106.19;10390601;28;96711;-85
2023/04/13 07:38:05;;;;;;;18.20;9.23;;;13.80;62.50;;;12.70;45.35;99105.31;10411721;28;96959;-86
2023/04/13 07:43:08;;;;;;;50.67;18.20;;;14.00;62.90;;;12.88;44.37;99104.66;10408869;28;96888;-84
2023/04/13 07:48:11;;;;;;;116.33;35.93;;;14.20;62.30;;;12.99;44.24;99109.34;10390350;27;96570;-85
2023/04/13 07:53:15;;;;;;;13.93;7.72;;;14.30;62.10;;;13.11;43.53;99108.47;10373736;28;98386;-85
2023/04/13 07:58:18;;;;;;;10.68;6.68;;;14.50;61.50;;;13.31;43.97;99110.25;10386687;28;96420;-84
2023/04/13 08:03:21;;;;;;;13.60;6.70;;;14.60;61.70;;;13.52;42.68;99115.31;10402646;28;96591;-86
2023/04/13 08:08:24;;;;;;;11.82;5.93;;;14.80;61.00;;;13.52;42.63;99106.50;10387718;28;96670;-85
2023/04/13 08:13:28;;;;;;;8.38;5.25;;;14.90;60.50;;;13.64;43.23;99110.94;10407225;28;96500;-85
2023/04/13 08:18:32;;;;;;;8.60;5.35;;;14.90;60.90;;;13.83;43.20;99117.19;10385360;28;96773;-85
2023/04/13 08:23:36;;;;;;;11.10;5.55;;;15.10;61.10;;;14.14;42.97;99107.50;10401908;28;96449;-86
2023/04/13 08:28:39;;;;;;;12.95;6.55;;;15.20;61.00;;;14.58;41.49;99109.25;10386893;28;96559;-85
2023/04/13 08:33:42;;;;;;;13.13;6.70;;;15.50;60.40;;;15.01;40.31;99102.22;10400014;28;96638;-85
2023/04/13 08:38:45;;;;;;;7.80;4.68;;;16.00;59.90;;;15.33;38.29;99102.84;10385091;28;96593;-85
2023/04/13 08:43:50;;;;;;;7.45;4.30;;;16.40;57.70;;;15.48;37.95;99097.94;10376424;28;97249;-86
2023/04/13 08:48:55;;;;;;;7.20;4.72;;;16.60;56.80;;;15.47;37.52;99093.59;10367320;28;97375;-86
2023/04/13 08:53:58;;;;;;;7.03;4.25;;;16.70;55.80;;;15.79;37.58;99092.38;10398805;28;96550;-85
2023/04/13 08:59:06;;;;;;;12.50;4.80;;;17.00;56.00;;;16.05;37.56;99083.09;10359404;28;96568;-86
2023/04/13 09:04:12;;;;;;;11.30;4.30;;;17.30;55.30;;;16.21;36.65;99086.97;10349155;28;96932;-86
2023/04/13 09:09:19;;;;;;;15.70;6.85;;;17.50;54.70;;;16.55;36.42;99068.44;10382842;28;96460;-85
2023/04/13 09:14:24;;;;;;;15.02;6.57;;;17.80;54.50;;;16.96;35.90;99072.03;10400200;28;97476;-86
2023/04/13 09:19:31;;;;;;;7.47;3.45;;;18.10;53.70;;;18.09;34.87;99056.97;10399197;28;96506;-85
2023/04/13 09:24:39;;;;;;;5.40;2.90;;;18.90;53.90;;;19.19;33.34;99055.28;10383155;28;96520;-86
2023/04/13 09:29:55;;;;;;;6.65;2.70;;;19.90;52.50;;;20.09;29.26;99058.34;10383423;28;96429;-86
2023/04/13 09:35:07;;;;;;;5.55;3.00;;;21.00;49.90;;;20.40;30.61;99057.53;10379285;28;97220;-85
2023/04/13 09:40:13;;;;;;;9.48;4.60;;;21.30;49.20;;;20.40;28.54;99057.53;10411550;28;96864;-85
2023/04/13 09:45:16;;;;;;;7.10;3.25;;;21.50;47.20;;;19.86;29.24;99052.25;10399879;28;96427;-85
2023/04/13 09:50:27;;;;;;;12.88;4.95;;;21.20;46.10;;;19.31;29.06;99058.69;10382749;28;97021;-85
2023/04/13 09:55:38;;;;;;;6.30;3.35;;;20.70;46.00;;;18.68;29.70;99051.97;10381078;28;96595;-85
2023/04/13 10:00:45;;;;;;;17.27;6.22;;;20.10;45.80;;;18.11;30.78;99058.38;10397551;28;98289;-85
2023/04/13 10:05:48;;;;;;;9.57;4.10;;;19.60;46.40;;;17.74;31.00;99068.75;10381235;28;97377;-85
2023/04/13 10:11:03;;;;;;;7.80;4.20;;;19.20;46.90;;;17.44;31.34;99068.16;10368375;28;96467;-85
2023/04/13 10:16:15;;;;;;;13.90;5.22;;;18.90;47.00;;;17.07;32.01;99068.53;10386994;28;96444;-84
2023/04/13 10:21:18;;;;;;;12.70;5.28;;;18.60;46.90;;;16.85;32.20;99074.53;10402726;28;99022;-86
2023/04/13 10:26:32;;;;;;;26.42;9.07;;;18.30;47.50;;;16.66;32.04;99067.63;10382411;28;96525;-85
2023/04/13 10:31:47;;;;;;;22.83;7.30;;;18.10;47.20;;;16.39;32.17;99064.63;10398707;28;96434;-85
2023/04/13 10:36:54;;;;;;;15.63;6.38;;;17.80;47.30;;;16.26;32.78;99062.16;10380091;28;96644;-85
2023/04/13 10:42:08;;;;;;;12.88;3.65;;;17.60;47.70;;;16.23;32.83;99067.97;10378536;27;96607;-85
2023/04/13 10:47:13;;;;;;;6.57;3.47;;;17.60;47.90;;;16.20;32.95;99058.56;10398987;27;97543;-85
2023/04/13 10:52:17;;;;;;;6.82;2.97;;;17.60;48.00;;;16.30;33.58;99066.00;10377429;28;96884;-83
2023/04/13 10:57:20;;;;;;;8.98;6.18;;;17.60;48.40;;;16.46;33.47;99048.41;10394783;28;96667;-84
2023/04/13 11:02:30;;;;;;;9.25;3.45;;;17.70;48.50;;;16.68;33.23;99030.66;10396446;28;96659;-84
2023/04/13 11:07:38;;;;;;;15.18;7.15;;;18.00;48.30;;;16.77;33.53;99026.59;10404448;27;98358;-85
2023/04/13 11:12:52;;;;;;;8.85;3.92;;;18.10;48.60;;;16.79;32.75;99035.22;10379785;28;96646;-84
2023/04/13 11:17:59;;;;;;;79.70;36.08;;;18.10;48.10;;;16.81;32.81;99037.66;10410429;27;96562;-84
2023/04/13 11:23:12;;;;;;;39.03;17.33;;;18.20;48.10;;;16.81;33.07;99026.94;10357385;27;97654;-84
2023/04/13 11:28:15;;;;;;;30.15;15.23;;;18.20;48.10;;;17.01;33.24;99026.53;10376265;28;96629;-84
2023/04/13 11:33:28;;;;;;;9.75;4.80;;;18.30;48.30;;;17.37;32.38;99025.34;10364915;28;96566;-87
2023/04/13 11:38:32;;;;;;;13.60;6.07;;;18.70;48.10;;;17.81;32.10;99015.69;10403238;28;96657;-86
2023/04/13 11:43:36;;;;;;;10.70;4.68;;;19.10;48.00;;;18.02;31.94;99011.44;10386006;28;96521;-86
2023/04/13 11:48:39;;;;;;;4.90;2.30;;;19.40;47.50;;;17.78;31.98;99004.59;10393176;27;96600;-86
2023/04/13 11:53:42;;;;;;;5.35;2.60;;;19.30;47.20;;;17.65;32.70;99011.06;10371441;28;96809;-85
2023/04/13 11:58:50;;;;;;;7.10;3.35;;;19.10;47.80;;;17.71;33.39;98990.50;10383245;28;98594;-86
2023/04/13 12:04:00;;;;;;;4.13;2.10;;;19.10;48.20;;;18.02;33.63;98995.31;10414279;27;96499;-86
2023/04/13 12:09:18;;;;;;;7.25;2.97;;;19.30;48.50;;;17.99;33.63;98984.22;10402409;27;98645;-86
2023/04/13 12:14:25;;;;;;;5.60;2.35;;;19.30;48.50;;;17.96;34.05;98984.72;10388350;28;96505;-86
2023/04/13 12:19:31;;;;;;;5.97;2.38;;;19.30;48.80;;;18.30;33.36;98972.06;10387095;28;96526;-86
2023/04/13 12:24:38;;;;;;;4.60;2.45;;;19.60;48.90;;;18.57;32.62;98967.56;10355381;28;96689;-86
2023/04/13 12:29:42;;;;;;;8.90;4.53;;;19.90;48.40;;;18.66;33.04;98967.97;10357008;28;97490;-85
2023/04/13 12:34:46;;;;;;;6.88;4.03;;;20.00;48.30;;;18.37;32.27;98972.69;10367221;27;96857;-85
2023/04/13 12:39:48;;;;;;;11.13;4.03;;;19.80;47.70;;;18.08;32.98;98955.88;10399865;28;97917;-85
2023/04/13 12:44:53;;;;;;;13.38;6.55;;;19.50;47.90;;;18.00;33.16;98945.56;10397929;28;98056;-85
2023/04/13 12:49:57;;;;;;;8.48;4.00;;;19.30;48.10;;;17.95;33.04;98940.91;10376943;28;96791;-85
2023/04/13 12:55:01;;;;;;;11.43;5.70;;;19.30;48.10;;;17.91;33.21;98943.28;10366723;27;97465;-86
2023/04/13 13:00:09;;;;;;;6.15;2.83;;;19.20;48.20;;;18.03;33.14;98934.31;10377524;28;96710;-85
2023/04/13 13:05:12;;;;;;;8.45;3.75;;;19.30;48.40;;;18.13;32.74;98935.25;10395955;28;97184;-85
2023/04/13 13:10:16;;;;;;;3.88;1.98;;;19.40;48.40;;;18.27;31.99;98930.34;10416627;28;96582;-85
2023/04/13 13:15:32;;;;;;;8.45;4.50;;;19.70;47.90;;;18.50;31.69;98936.56;10380365;28;96642;-85
2023/04/13 13:20:40;;;;;;;9.50;3.50;;;20.00;47.40;;;18.43;32.55;98940.25;10364826;28;96571;-85
2023/04/13 13:25:43;;;;;;;12.93;4.85;;;19.90;47.40;;;18.44;31.72;98936.47;10383459;27;97001;-85
2023/04/13 13:30:59;;;;;;;6.30;2.65;;;19.90;47.10;;;18.07;32.45;98928.19;10355493;28;97493;-85
2023/04/13 13:36:02;;;;;;;17.10;5.88;;;19.60;47.40;;;18.06;32.87;98931.13;10359686;28;96487;-86
2023/04/13 13:41:05;;;;;;;18.75;7.13;;;19.40;47.90;;;17.98;33.01;98923.47;10415449;27;96676;-85
2023/04/13 13:46:09;;;;;;;17.63;6.13;;;19.30;48.10;;;17.71;33.53;98920.63;10403984;27;96687;-85
2023/04/13 13:51:13;;;;;;;8.15;2.90;;;19.10;48.40;;;17.64;33.63;98923.50;10382604;28;96545;-85
2023/04/13 13:56:16;;;;;;;5.75;2.70;;;19.00;48.60;;;17.49;34.16;98917.88;10397180;28;96640;-85
2023/04/13 14:01:19;;;;;;;12.63;4.28;;;18.80;48.90;;;17.42;34.25;98914.53;10396072;28;97340;-85
2023/04/13 14:06:22;;;;;;;4.47;1.95;;;18.80;49.20;;;17.47;35.02;98907.38;10379156;28;96628;-85
2023/04/13 14:11:26;;;;;;;4.05;1.70;;;18.80;49.40;;;17.63;33.86;98905.72;10398941;28;96501;-86
2023/04/13 14:16:29;;;;;;;4.20;1.85;;;18.90;49.10;;;17.66;34.20;98899.88;10396861;28;98100;-85
2023/04/13 14:21:32;;;;;;;5.82;1.80;;;19.00;49.10;;;17.65;34.11;98907.13;10374694;28;96519;-85
2023/04/13 14:26:37;;;;;;;3.88;1.67;;;19.00;49.10;;;17.58;33.84;98908.34;10366902;28;97440;-87
2023/04/13 14:31:40;;;;;;;5.55;1.92;;;18.90;49.10;;;17.41;33.83;98902.16;10387857;27;98327;-86
2023/04/13 14:36:43;;;;;;;2.88;1.30;;;18.80;49.10;;;17.32;34.04;98899.84;10380607;28;97809;-85
2023/04/13 14:41:46;;;;;;;4.57;1.70;;;18.60;49.20;;;17.19;34.61;98894.00;10391226;28;97346;-85
2023/04/13 14:46:49;;;;;;;9.02;4.63;;;18.50;49.50;;;17.06;34.74;98901.31;10384202;28;96595;-90
2023/04/13 14:51:52;;;;;;;9.77;5.45;;;18.40;49.50;;;17.00;35.32;98894.22;10378948;28;97338;-89
2023/04/13 14:56:55;;;;;;;11.95;6.50;;;18.40;49.80;;;16.89;35.29;98896.97;10380400;28;96582;-84
2023/04/13 15:01:59;;;;;;;6.78;4.40;;;18.30;49.90;;;16.82;35.17;98903.28;10402301;28;97823;-85
2023/04/13 15:07:03;;;;;;;7.53;3.53;;;18.20;50.00;;;16.74;36.53;98901.00;10406727;28;96723;-84
2023/04/13 15:12:09;;;;;;;4.40;1.83;;;18.10;50.30;;;16.75;35.92;98905.31;10380927;28;98481;-84
2023/04/13 15:17:15;;;;;;;4.37;2.50;;;18.10;50.60;;;16.60;37.65;98907.63;10375618;28;96582;-84
2023/04/13 15:22:19;;;;;;;14.43;7.70;;;17.90;51.40;;;16.44;38.41;98916.44;10404212;28;96504;-84
2023/04/13 15:27:25;;;;;;;9.10;4.60;;;17.80;51.90;;;16.22;40.34;98911.72;10375897;28;96638;-83
2023/04/13 15:32:29;;;;;;;8.98;5.35;;;17.60;53.60;;;16.04;42.31;98922.56;10401753;28;97878;-84
2023/04/13 15:37:32;;;;;;;13.55;5.70;;;17.40;55.00;;;15.74;44.41;98934.22;10386026;28;96669;-83
2023/04/13 15:42:35;;;;;;;8.80;5.80;;;17.20;55.90;;;15.50;46.11;98935.19;10398244;28;96630;-84
2023/04/13 15:47:38;;;;;;;22.70;11.45;;;16.90;57.60;;;15.24;48.59;98931.91;10422927;28;96344;-83
2023/04/13 15:52:41;;;;;;;8.52;4.25;;;16.60;59.20;;;15.05;49.18;98935.66;10411141;27;98773;-84
2023/04/13 15:57:44;;;;;;;6.47;3.70;;;16.40;60.50;;;14.93;51.47;98934.78;10415235;28;96575;-84
2023/04/13 16:02:47;;;;;;;7.57;4.80;;;16.30;61.70;;;14.80;53.44;98932.31;10392582;28;98496;-84
2023/04/13 16:07:51;;;;;;;8.43;5.35;;;16.20;62.90;;;14.77;54.53;98930.09;10378510;28;98334;-85
2023/04/13 16:12:54;;;;;;;8.05;5.57;;;16.20;63.80;;;14.80;55.56;98927.75;10390689;28;98547;-84
2023/04/13 16:17:57;;;;;;;10.70;5.03;;;16.20;65.20;;;14.84;55.24;98928.16;10381005;28;96982;-85
2023/04/13 16:23:03;;;;;;;10.48;5.95;;;16.20;65.50;;;14.86;54.80;98923.38;10380572;28;96697;-84
2023/04/13 16:28:06;;;;;;;10.05;5.93;;;16.20;65.90;;;14.83;55.67;98918.50;10401163;28;98559;-84
2023/04/13 16:33:09;;;;;;;9.40;5.80;;;16.20;66.70;;;14.81;56.62;98926.72;10415905;28;97375;-84
2023/04/13 16:38:12;;;;;;;11.20;5.45;;;16.10;67.10;;;14.77;56.45;98925.56;10386284;28;98581;-84
2023/04/13 16:43:16;;;;;;;10.70;5.75;;;16.10;67.50;;;14.72;56.83;98928.91;10397513;28;96540;-84
2023/04/13 16:48:19;;;;;;;11.35;5.45;;;16.10;68.10;;;14.65;57.35;98922.84;10356670;28;96717;-84
2023/04/13 16:53:22;;;;;;;18.20;8.68;;;16.00;68.50;;;14.53;58.06;98924.63;10399665;28;96584;-84
2023/04/13 16:58:25;;;;;;;19.95;9.77;;;15.90;69.30;;;14.41;58.96;98923.72;10415987;27;96614;-84
2023/04/13 17:03:29;;;;;;;15.95;8.40;;;15.80;70.30;;;14.16;60.08;98921.94;10381006;27;97223;-84
2023/04/13 17:08:32;;;;;;;13.10;7.30;;;15.60;72.30;;;13.96;61.45;98925.84;10377822;28;96892;-84
2023/04/13 17:13:35;;;;;;;13.20;7.63;;;15.30;73.80;;;13.66;61.56;98927.34;10396315;28;96534;-85
2023/04/13 17:18:39;;;;;;;9.55;6.07;;;15.10;74.60;;;13.39;61.96;98948.09;10391477;28;99013;-86
2023/04/13 17:23:43;;;;;;;10.57;5.73;;;14.80;75.10;;;13.21;62.03;98955.19;10385923;28;98396;-85
2023/04/13 17:28:46;;;;;;;8.27;4.83;;;14.60;75.40;;;13.03;62.75;98954.03;10373880;28;96577;-86
2023/04/13 17:33:50;;;;;;;7.63;4.67;;;14.40;76.20;;;12.90;63.15;98966.63;10357393;27;98618;-86
2023/04/13 17:38:53;;;;;;;10.23;5.10;;;14.30;76.60;;;12.75;63.85;98965.03;10375750;27;98838;-86
2023/04/13 17:43:56;;;;;;;9.73;5.43;;;14.20;77.30;;;12.62;64.42;98969.63;10395832;28;97882;-86
2023/04/13 17:48:59;;;;;;;9.90;6.27;;;14.00;77.80;;;12.52;64.84;98965.53;10396676;28;96659;-87
2023/04/13 17:54:06;;;;;;;9.43;6.60;;;13.90;78.60;;;12.44;66.21;98978.28;10392395;28;96639;-87
2023/04/13 17:59:13;;;;;;;7.60;5.40;;;13.80;80.10;;;12.33;66.49;98979.72;10376995;28;96482;-88
2023/04/13 18:04:16;;;;;;;15.33;7.60;;;13.70;80.30;;;12.25;67.01;98979.97;10365920;28;98855;-86
2023/04/13 18:09:21;;;;;;;11.10;6.40;;;13.60;80.90;;;12.22;67.03;98985.69;10380717;28;96611;-86
2023/04/13 18:14:24;;;;;;;14.03;6.53;;;13.60;81.00;;;12.19;67.19;99000.25;10364666;28;99115;-88
2023/04/13 18:19:29;;;;;;;16.13;10.43;;;13.60;81.50;;;12.17;67.19;99015.59;10378943;28;99282;-89
2023/04/13 18:24:32;;;;;;;18.40;7.83;;;13.50;81.50;;;12.15;67.11;99001.69;10391750;27;98454;-86
2023/04/13 18:29:35;;;;;;;18.17;7.20;;;13.50;81.70;;;12.12;66.98;99006.63;10395466;28;96604;-88
2023/04/13 18:34:41;;;;;;;13.70;6.90;;;13.50;81.80;;;12.07;67.67;99009.09;10407580;28;98649;-88
2023/04/13 18:39:44;;;;;;;15.67;9.30;;;13.50;82.40;;;12.00;68.65;99006.44;10374653;27;97174;-88
2023/04/13 18:44:47;;;;;;;16.57;9.60;;;13.40;83.10;;;11.94;69.12;99015.25;10351554;28;98245;-88
2023/04/13 18:49:50;;;;;;;16.87;10.57;;;13.40;83.70;;;11.85;70.79;99013.78;10370931;27;96870;-87
2023/04/13 18:54:53;;;;;;;26.60;14.27;;;13.30;84.40;;;11.79;71.23;99013.56;10368939;28;98360;-89
2023/04/13 18:59:57;;;;;;;22.90;11.57;;;13.20;86.10;;;11.70;72.07;99008.66;10382844;28;96717;-89
2023/04/13 19:05:00;;;;;;;20.37;9.87;;;13.20;87.10;;;11.62;72.42;99017.63;10395744;28;98445;-91
2023/04/13 19:10:04;;;;;;;21.70;10.53;;;13.10;88.30;;;11.58;72.54;99010.28;10395341;28;96615;-88
2023/04/13 19:15:10;;;;;;;19.30;11.07;;;13.00;88.40;;;11.49;72.15;98993.69;10373367;28;98383;-87
2023/04/13 19:20:13;;;;;;;15.10;8.87;;;13.00;88.80;;;11.46;72.23;98994.91;10389784;28;96785;-84
2023/04/13 19:25:18;;;;;;;14.57;9.73;;;12.90;89.00;;;11.39;72.37;98994.06;10377875;27;98252;-84
2023/04/13 19:30:21;;;;;;;16.53;11.13;;;12.80;89.30;;;11.37;72.41;98996.13;10389334;28;96564;-83
2023/04/13 19:35:25;;;;;;;16.73;9.97;;;12.80;89.50;;;11.34;72.31;99001.84;10408131;27;97556;-84
2023/04/13 19:40:28;;;;;;;12.73;7.43;;;12.80;89.90;;;11.31;72.35;98991.59;10369627;27;98600;-84
2023/04/13 19:45:31;;;;;;;8.67;5.37;;;12.70;90.00;;;11.32;71.86;98979.94;10393773;27;98210;-87
2023/04/13 19:50:34;;;;;;;9.33;5.57;;;12.70;90.10;;;11.28;72.12;98976.06;10385931;28;96463;-87
2023/04/13 19:55:37;;;;;;;8.07;4.87;;;12.70;90.10;;;11.25;72.21;98965.81;10398189;28;98799;-86
2023/04/13 20:00:41;;;;;;;10.73;5.80;;;12.70;90.40;;;11.20;72.95;98960.28;10373760;28;97777;-88
2023/04/13 20:05:44;;;;;;;13.67;7.63;;;12.60;90.70;;;11.13;73.04;98954.13;10398368;28;97016;-87
2023/04/13 20:10:48;;;;;;;18.87;10.07;;;12.60;90.80;;;11.07;73.11;98954.94;10384703;28;97131;-88
2023/04/13 20:15:51;;;;;;;16.07;9.53;;;12.50;91.10;;;11.02;73.57;98942.25;10368549;28;96543;-88
2023/04/13 20:20:54;;;;;;;14.43;8.67;;;12.50;91.40;;;11.02;73.54;98947.56;10383223;28;96713;-88
2023/04/13 20:25:57;;;;;;;9.87;6.30;;;12.40;91.70;;;10.98;73.77;98939.19;10382582;28;97200;-88
2023/04/13 20:31:00;;;;;;;13.23;6.90;;;12.40;92.00;;;10.97;73.69;98934.91;10398104;28;96553;-87
2023/04/13 20:36:04;;;;;;;12.53;6.47;;;12.40;92.30;;;10.95;74.01;98923.63;10401598;28;97738;-87
2023/04/13 20:41:09;;;;;;;20.07;14.40;;;12.40;92.70;;;10.97;73.61;98924.28;10379409;27;96657;-89
2023/04/13 20:46:15;;;;;;;14.33;9.33;;;12.30;92.90;;;10.98;73.42;98923.25;10376657;28;98473;-90
2023/04/13 20:51:21;;;;;;;11.97;7.03;;;12.40;93.00;;;10.97;72.92;98918.97;10418891;28;98245;-89
2023/04/13 20:56:25;;;;;;;8.70;5.40;;;12.40;93.00;;;11.05;73.05;98911.81;10381842;27;98315;-89
2023/04/13 21:01:31;;;;;;;8.30;5.03;;;12.40;93.10;;;11.08;72.09;98909.53;10381766;28;97395;-88
2023/04/13 21:06:34;;;;;;;8.90;4.50;;;12.40;93.20;;;11.12;71.74;98907.31;10365134;28;97211;-89